createdAt,value
2018-03-20T00:01:52.700Z,0.30
2018-03-20T00:04:20.237Z,0.67
2018-03-20T00:06:47.066Z,0.20
2018-03-20T00:09:13.765Z,0.30
2018-03-20T00:11:40.459Z,0.30
2018-03-20T00:14:07.369Z,0.40
2018-03-20T00:16:34.760Z,0.40
2018-03-20T00:19:01.427Z,0.33
2018-03-20T00:21:28.304Z,0.40
2018-03-20T00:23:55.092Z,0.40
2018-03-20T00:26:21.840Z,0.40
2018-03-20T00:28:48.674Z,0.50
2018-03-20T00:31:15.530Z,0.50
2018-03-20T00:33:43.102Z,0.40
2018-03-20T00:36:09.848Z,0.40
2018-03-20T00:38:37.409Z,0.40
2018-03-20T00:41:04.164Z,0.60
2018-03-20T00:43:30.888Z,0.40
2018-03-20T00:45:58.370Z,0.40
2018-03-20T00:48:25.218Z,0.60
2018-03-20T00:50:51.966Z,0.50
2018-03-20T00:53:18.920Z,0.60
2018-03-20T00:55:45.768Z,0.40
2018-03-20T00:58:12.452Z,0.30
2018-03-20T01:00:39.275Z,0.50
2018-03-20T01:03:05.962Z,0.70
2018-03-20T01:05:32.753Z,0.40
2018-03-20T01:07:59.802Z,0.40
2018-03-20T01:10:26.653Z,0.30
2018-03-20T01:12:53.353Z,0.70
2018-03-20T01:15:20.282Z,0.47
2018-03-20T01:17:46.991Z,0.67
2018-03-20T01:20:13.727Z,0.57
2018-03-20T01:22:40.467Z,0.43
2018-03-20T01:25:07.180Z,0.60
2018-03-20T01:27:34.630Z,0.33
2018-03-20T01:30:01.434Z,0.40
2018-03-20T01:32:28.606Z,0.50
2018-03-20T01:34:55.316Z,0.30
2018-03-20T01:37:22.807Z,0.50
2018-03-20T01:39:49.641Z,0.50
2018-03-20T01:42:16.399Z,0.40
2018-03-20T01:44:43.140Z,0.73
2018-03-20T01:47:09.854Z,0.60
2018-03-20T01:49:36.516Z,0.37
2018-03-20T01:52:04.187Z,0.97
2018-03-20T01:54:30.888Z,0.40
2018-03-20T01:56:57.583Z,0.43
2018-03-20T01:59:24.311Z,0.40
2018-03-20T02:01:51.757Z,0.50
2018-03-20T02:04:19.169Z,0.33
2018-03-20T02:06:46.080Z,0.50
2018-03-20T02:09:13.486Z,0.20
2018-03-20T02:11:40.165Z,0.40
2018-03-20T02:14:07.054Z,0.30
2018-03-20T02:16:34.601Z,0.33
2018-03-20T02:19:01.346Z,0.30
2018-03-20T02:21:28.816Z,0.40
2018-03-20T02:23:56.259Z,0.20
2018-03-20T02:26:22.978Z,0.30
2018-03-20T02:28:49.682Z,0.30
2018-03-20T02:31:16.353Z,0.43
2018-03-20T02:33:43.062Z,0.33
2018-03-20T02:36:10.574Z,0.60
2018-03-20T02:38:37.405Z,0.30
2018-03-20T02:41:04.147Z,0.43
2018-03-20T02:43:30.887Z,0.40
2018-03-20T02:45:57.638Z,0.30
2018-03-20T02:48:24.486Z,0.30
2018-03-20T02:50:51.335Z,0.30
2018-03-20T02:53:18.001Z,0.50
2018-03-20T02:55:44.694Z,0.40
2018-03-20T02:58:12.326Z,0.47
2018-03-20T03:00:39.035Z,0.20
2018-03-20T03:03:05.991Z,0.30
2018-03-20T03:05:32.838Z,0.30
2018-03-20T03:07:59.581Z,0.20
2018-03-20T03:10:26.629Z,0.30
2018-03-20T03:12:53.462Z,0.27
2018-03-20T03:15:20.910Z,0.20
2018-03-20T03:17:47.635Z,0.43
2018-03-20T03:20:14.381Z,0.47
2018-03-20T03:22:41.070Z,0.20
2018-03-20T03:25:07.810Z,0.30
2018-03-20T03:27:34.624Z,0.20
2018-03-20T03:30:01.291Z,0.27
2018-03-20T03:32:28.705Z,0.30
2018-03-20T03:34:55.413Z,0.30
2018-03-20T03:37:22.840Z,0.30
2018-03-20T03:39:49.596Z,0.33
2018-03-20T03:42:17.032Z,0.30
2018-03-20T03:44:43.694Z,0.40
2018-03-20T03:47:10.428Z,0.20
2018-03-20T03:49:37.092Z,0.20
2018-03-20T03:52:03.810Z,0.43
2018-03-20T03:54:30.545Z,0.30
2018-03-20T03:56:57.271Z,0.40
2018-03-20T03:59:24.843Z,0.20
2018-03-20T04:01:51.536Z,0.37
2018-03-20T04:04:18.243Z,0.37
2018-03-20T04:06:44.980Z,0.40
2018-03-20T04:09:11.656Z,0.30
2018-03-20T04:11:38.534Z,0.27
2018-03-20T04:14:06.031Z,0.30
2018-03-20T04:16:32.775Z,0.20
2018-03-20T04:18:59.831Z,0.30
2018-03-20T04:21:26.510Z,0.20
2018-03-20T04:23:53.188Z,0.23
2018-03-20T04:26:20.993Z,0.30
2018-03-20T04:28:47.738Z,0.20
2018-03-20T04:31:14.426Z,0.40
2018-03-20T04:33:42.664Z,0.20
2018-03-20T04:36:09.510Z,0.10
2018-03-20T04:38:36.255Z,0.40
2018-03-20T04:41:02.998Z,0.37
2018-03-20T04:43:29.957Z,0.20
2018-03-20T04:45:57.111Z,0.30
2018-03-20T04:48:23.963Z,0.40
2018-03-20T04:50:50.886Z,0.20
2018-03-20T04:53:18.372Z,0.37
2018-03-20T04:55:45.120Z,0.30
2018-03-20T04:58:12.069Z,0.40
2018-03-20T05:00:38.758Z,0.33
2018-03-20T05:03:05.454Z,0.40
2018-03-20T05:05:32.382Z,0.27
2018-03-20T05:07:59.978Z,0.10
2018-03-20T05:10:26.649Z,0.20
2018-03-20T05:12:53.469Z,0.37
2018-03-20T05:15:20.318Z,0.30
2018-03-20T05:17:47.168Z,0.43
2018-03-20T05:20:34.992Z,0.43
2018-03-20T05:23:08.786Z,0.20
2018-03-20T05:25:35.545Z,0.27
2018-03-20T05:28:02.393Z,0.37
2018-03-20T05:30:29.247Z,0.30
2018-03-20T05:32:55.964Z,0.30
2018-03-20T05:35:22.827Z,0.30
2018-03-20T05:37:49.582Z,0.37
2018-03-20T05:40:16.418Z,0.40
2018-03-20T05:42:43.382Z,0.70
2018-03-20T05:45:10.064Z,0.30
2018-03-20T05:47:51.854Z,0.47
2018-03-20T05:50:33.503Z,0.73
2018-03-20T05:53:00.660Z,0.37
2018-03-20T05:55:27.404Z,0.30
2018-03-20T05:57:54.254Z,0.50
2018-03-20T06:00:21.102Z,0.30
2018-03-20T06:02:47.736Z,0.37
2018-03-20T06:05:15.215Z,0.50
2018-03-20T06:07:41.956Z,0.57
2018-03-20T06:10:08.689Z,0.40
2018-03-20T06:12:35.450Z,0.60
2018-03-20T06:15:02.300Z,0.70
2018-03-20T06:17:29.048Z,0.60
2018-03-20T06:19:55.890Z,0.47
2018-03-20T06:22:22.816Z,0.70
2018-03-20T06:24:50.289Z,0.70
2018-03-20T06:27:17.875Z,0.60
2018-03-20T06:29:44.824Z,0.50
2018-03-20T06:32:11.569Z,0.80
2018-03-20T06:34:38.315Z,0.83
2018-03-20T06:37:05.164Z,0.80
2018-03-20T06:39:32.828Z,0.90
2018-03-20T06:41:59.574Z,0.70
2018-03-20T06:44:26.422Z,0.90
2018-03-20T06:46:53.170Z,0.53
2018-03-20T06:49:20.072Z,0.60
2018-03-20T06:51:48.302Z,0.97
2018-03-20T06:54:15.046Z,1.47
2018-03-20T06:56:41.793Z,1.00
2018-03-20T06:59:08.540Z,0.90
2018-03-20T07:01:35.284Z,1.10
2018-03-20T07:04:02.238Z,0.70
2018-03-20T07:06:29.700Z,1.03
2018-03-20T07:08:56.546Z,0.93
2018-03-20T07:11:23.395Z,1.17
2018-03-20T07:13:50.143Z,1.10
2018-03-20T07:16:17.093Z,1.13
2018-03-20T07:18:43.942Z,1.00
2018-03-20T07:21:10.664Z,1.00
2018-03-20T07:23:37.431Z,0.87
2018-03-20T07:26:04.389Z,1.40
2018-03-20T07:28:31.175Z,0.90
2018-03-20T07:30:57.878Z,1.20
2018-03-20T07:33:24.830Z,1.03
2018-03-20T07:35:51.574Z,1.30
2018-03-20T07:38:18.423Z,0.90
2018-03-20T07:40:45.150Z,1.43
2018-03-20T07:43:12.612Z,1.40
2018-03-20T07:45:39.585Z,1.13
2018-03-20T07:48:06.329Z,1.00
2018-03-20T07:50:32.972Z,1.20
2018-03-20T07:52:59.804Z,1.27
2018-03-20T07:55:26.672Z,1.20
2018-03-20T07:57:53.417Z,1.10
2018-03-20T08:00:20.150Z,1.23
2018-03-20T08:02:46.908Z,0.90
2018-03-20T08:05:13.860Z,1.40
2018-03-20T08:07:40.711Z,0.97
2018-03-20T08:10:07.433Z,1.13
2018-03-20T08:12:34.917Z,1.10
2018-03-20T08:15:01.767Z,0.90
2018-03-20T08:17:28.513Z,1.13
2018-03-20T08:19:55.247Z,1.00
2018-03-20T08:22:22.005Z,1.33
2018-03-20T08:24:48.833Z,1.10
2018-03-20T08:27:16.298Z,1.20
2018-03-20T08:29:43.780Z,1.20
2018-03-20T08:32:10.936Z,1.53
2018-03-20T08:34:37.684Z,1.27
2018-03-20T08:37:04.426Z,1.10
2018-03-20T08:39:31.174Z,1.23
2018-03-20T08:41:57.918Z,1.40
2018-03-20T08:44:24.873Z,1.37
2018-03-20T08:46:51.617Z,1.00
2018-03-20T08:49:18.464Z,1.17
2018-03-20T08:51:45.397Z,1.10
2018-03-20T08:54:12.880Z,1.37
2018-03-20T08:56:39.605Z,1.20
2018-03-20T08:59:06.370Z,1.30
2018-03-20T09:01:33.301Z,1.30
2018-03-20T09:04:00.975Z,1.27
2018-03-20T09:06:27.868Z,1.03
2018-03-20T09:08:54.688Z,1.23
2018-03-20T09:11:21.432Z,1.03
2018-03-20T09:13:48.166Z,1.20
2018-03-20T09:16:14.931Z,1.30
2018-03-20T09:18:41.673Z,1.27
2018-03-20T09:21:08.407Z,1.23
2018-03-20T09:23:35.375Z,1.10
2018-03-20T09:26:02.114Z,1.13
2018-03-20T09:28:28.863Z,1.20
2018-03-20T09:30:55.810Z,1.10
2018-03-20T09:33:22.449Z,1.27
2018-03-20T09:35:49.306Z,1.20
2018-03-20T09:38:16.051Z,1.10
2018-03-20T09:40:42.901Z,1.50
2018-03-20T09:43:09.655Z,1.30
2018-03-20T09:45:36.596Z,1.30
2018-03-20T09:48:03.341Z,1.20
2018-03-20T09:50:30.092Z,1.23
2018-03-20T09:52:58.268Z,1.40
2018-03-20T09:55:25.013Z,1.17
2018-03-20T09:57:51.753Z,1.40
2018-03-20T10:00:18.712Z,1.67
2018-03-20T10:02:45.565Z,1.33
2018-03-20T10:05:12.306Z,1.40
2018-03-20T10:07:39.256Z,1.20
2018-03-20T10:10:06.004Z,1.30
2018-03-20T10:12:32.748Z,1.60
2018-03-20T10:14:59.700Z,1.50
2018-03-20T10:17:26.447Z,1.00
2018-03-20T10:19:53.297Z,1.53
2018-03-20T10:22:20.143Z,1.00
2018-03-20T10:24:46.889Z,1.13
2018-03-20T10:27:13.744Z,1.23
2018-03-20T10:29:40.586Z,1.20
2018-03-20T10:32:07.375Z,1.30
2018-03-20T10:34:34.079Z,1.53
2018-03-20T10:37:01.032Z,1.10
2018-03-20T10:39:27.879Z,1.50
2018-03-20T10:41:54.631Z,1.40
2018-03-20T10:44:21.625Z,1.50
2018-03-20T10:46:48.389Z,1.50
2018-03-20T10:49:15.248Z,1.63
2018-03-20T10:51:43.043Z,1.60
2018-03-20T10:54:09.891Z,1.43
2018-03-20T10:56:36.716Z,1.40
2018-03-20T10:59:04.304Z,1.30
2018-03-20T11:01:31.281Z,1.57
2018-03-20T11:03:58.079Z,1.30
2018-03-20T11:06:25.669Z,1.03
2018-03-20T11:08:52.517Z,1.30
2018-03-20T11:11:19.368Z,1.37
2018-03-20T11:13:46.294Z,1.70
2018-03-20T11:16:13.857Z,1.87
2018-03-20T11:18:41.367Z,1.40
2018-03-20T11:21:08.295Z,1.23
2018-03-20T11:23:35.143Z,1.17
2018-03-20T11:26:01.992Z,1.33
2018-03-20T11:28:28.835Z,1.27
2018-03-20T11:30:55.598Z,1.40
2018-03-20T11:33:22.538Z,1.27
2018-03-20T11:35:49.592Z,1.37
2018-03-20T11:38:16.444Z,1.40
2018-03-20T11:40:43.289Z,1.27
2018-03-20T11:43:10.242Z,1.03
2018-03-20T11:45:37.293Z,1.20
2018-03-20T11:48:04.072Z,1.80
2018-03-20T11:50:30.863Z,1.40
2018-03-20T11:52:58.407Z,1.00
2018-03-20T11:55:25.284Z,1.27
2018-03-20T11:57:52.149Z,1.33
2018-03-20T12:00:19.202Z,1.23
2018-03-20T12:02:46.056Z,0.97
2018-03-20T12:05:12.901Z,1.50
2018-03-20T12:07:51.968Z,1.03
2018-03-20T12:10:18.775Z,1.07
2018-03-20T12:12:45.529Z,1.30
2018-03-20T12:15:12.574Z,1.30
2018-03-20T12:17:39.424Z,1.03
2018-03-20T12:20:06.273Z,1.03
2018-03-20T12:22:33.221Z,1.30
2018-03-20T12:25:00.073Z,1.10
2018-03-20T12:27:26.920Z,1.37
2018-03-20T12:29:53.854Z,1.00
2018-03-20T12:32:21.639Z,1.10
2018-03-20T12:34:48.491Z,1.07
2018-03-20T12:37:15.338Z,1.07
2018-03-20T12:39:42.144Z,1.07
2018-03-20T12:42:09.035Z,1.10
2018-03-20T12:44:35.883Z,0.90
2018-03-20T12:47:02.936Z,0.90
2018-03-20T12:49:29.760Z,1.00
2018-03-20T12:51:57.351Z,0.90
2018-03-20T12:54:24.217Z,0.80
2018-03-20T12:56:50.989Z,1.10
2018-03-20T12:59:17.772Z,1.23
2018-03-20T13:01:45.562Z,1.07
2018-03-20T13:04:12.411Z,0.93
2018-03-20T13:06:39.260Z,1.00
2018-03-20T13:09:06.193Z,1.00
2018-03-20T13:11:33.758Z,0.93
2018-03-20T13:14:00.625Z,1.00
2018-03-20T13:16:27.780Z,0.90
2018-03-20T13:18:54.627Z,1.00
2018-03-20T13:21:21.458Z,1.07
2018-03-20T13:23:49.122Z,1.00
2018-03-20T13:26:16.685Z,0.80
2018-03-20T13:28:44.274Z,1.10
2018-03-20T13:31:11.205Z,0.93
2018-03-20T13:33:38.791Z,1.03
2018-03-20T13:36:05.741Z,1.37
2018-03-20T13:38:32.794Z,1.17
2018-03-20T13:40:59.564Z,1.10
2018-03-20T13:43:26.364Z,1.10
2018-03-20T13:45:53.955Z,1.00
2018-03-20T13:48:20.802Z,1.20
2018-03-20T13:50:52.603Z,1.13
2018-03-20T13:53:18.057Z,1.17
2018-03-20T13:55:45.624Z,1.00
2018-03-20T13:58:13.210Z,0.93
2018-03-20T14:00:40.574Z,0.90
2018-03-20T14:03:07.625Z,0.70
2018-03-20T14:05:34.986Z,1.00
2018-03-20T14:08:02.038Z,1.00
2018-03-20T14:10:32.237Z,1.40
2018-03-20T14:13:01.568Z,0.80
2018-03-20T14:15:31.070Z,1.00
2018-03-20T14:18:00.076Z,1.00
2018-03-20T14:20:30.523Z,1.03
2018-03-20T14:22:58.422Z,0.80
2018-03-20T14:25:25.227Z,0.87
2018-03-20T14:27:52.281Z,1.00
2018-03-20T14:30:19.127Z,0.90
2018-03-20T14:32:45.976Z,1.10
2018-03-20T14:35:12.826Z,0.80
2018-03-20T14:37:39.648Z,0.83
2018-03-20T14:40:07.240Z,0.90
2018-03-20T14:42:34.087Z,1.00
2018-03-20T14:45:01.448Z,1.10
2018-03-20T14:47:28.273Z,0.77
2018-03-20T14:49:55.773Z,0.70
2018-03-20T14:52:22.919Z,1.10
2018-03-20T14:54:49.763Z,0.80
2018-03-20T14:57:16.560Z,0.90
2018-03-20T14:59:43.460Z,0.83
2018-03-20T15:02:10.492Z,0.83
2018-03-20T15:04:38.077Z,1.00
2018-03-20T15:07:04.911Z,1.10
2018-03-20T15:09:32.594Z,0.70
2018-03-20T15:11:59.427Z,1.00
2018-03-20T15:14:27.206Z,1.10
2018-03-20T15:16:54.036Z,0.80
2018-03-20T15:19:21.627Z,0.87
2018-03-20T15:21:48.474Z,0.73
2018-03-20T15:24:15.424Z,0.97
2018-03-20T15:26:42.274Z,0.73
2018-03-20T15:29:09.181Z,0.70
2018-03-20T15:31:36.048Z,1.20
2018-03-20T15:34:03.724Z,0.90
2018-03-20T15:36:31.285Z,0.93
2018-03-20T15:38:59.052Z,1.07
2018-03-20T15:41:33.676Z,0.90
2018-03-20T15:44:01.345Z,1.17
2018-03-20T15:46:28.933Z,1.03
2018-03-20T15:48:55.782Z,0.70
2018-03-20T15:51:22.711Z,1.00
2018-03-20T15:53:50.485Z,0.90
2018-03-20T15:56:18.044Z,1.10
2018-03-20T15:58:45.836Z,1.07
2018-03-20T16:01:12.890Z,0.90
2018-03-20T16:03:39.671Z,0.80
2018-03-20T16:06:06.486Z,1.33
2018-03-20T16:08:33.308Z,0.90
2018-03-20T16:11:00.899Z,1.00
2018-03-20T16:13:27.690Z,1.10
2018-03-20T16:15:54.675Z,0.90
2018-03-20T16:18:22.267Z,1.00
2018-03-20T16:20:49.092Z,0.90
2018-03-20T16:23:16.778Z,0.83
2018-03-20T16:25:43.631Z,0.97
2018-03-20T16:28:10.578Z,0.90
2018-03-20T16:30:37.404Z,0.90
2018-03-20T16:33:04.997Z,0.90
2018-03-20T16:35:31.885Z,0.80
2018-03-20T16:37:58.793Z,1.03
2018-03-20T16:40:25.549Z,1.20
2018-03-20T16:42:52.449Z,0.90
2018-03-20T16:45:19.235Z,1.00
2018-03-20T16:47:46.067Z,1.00
2018-03-20T16:50:12.931Z,1.43
2018-03-20T16:52:39.861Z,0.77
2018-03-20T16:55:07.426Z,1.10
2018-03-20T16:57:34.937Z,1.03
2018-03-20T17:00:01.766Z,1.00
2018-03-20T17:02:28.607Z,1.00
2018-03-20T17:04:55.498Z,0.87
2018-03-20T17:07:22.308Z,0.90
2018-03-20T17:09:49.154Z,1.00
2018-03-20T17:12:16.002Z,1.00
2018-03-20T17:14:43.670Z,1.00
2018-03-20T17:17:10.481Z,1.10
2018-03-20T17:19:37.565Z,1.00
2018-03-20T17:22:04.525Z,0.90
2018-03-20T17:24:31.470Z,1.00
2018-03-20T17:26:58.529Z,1.37
2018-03-20T17:29:25.682Z,1.20
2018-03-20T17:31:53.763Z,0.80
2018-03-20T17:34:21.430Z,1.17
2018-03-20T17:36:48.383Z,0.93
2018-03-20T17:39:15.331Z,1.17
2018-03-20T17:41:42.691Z,1.13
2018-03-20T17:44:09.853Z,1.13
2018-03-20T17:46:36.688Z,1.10
2018-03-20T17:49:03.747Z,1.30
2018-03-20T17:51:30.699Z,1.30
2018-03-20T17:53:58.360Z,1.00
2018-03-20T17:56:25.321Z,1.23
2018-03-20T17:58:52.143Z,1.40
2018-03-20T18:01:19.095Z,1.00
2018-03-20T18:03:46.786Z,1.23
2018-03-20T18:06:14.042Z,1.33
2018-03-20T18:08:40.994Z,0.97
2018-03-20T18:11:07.844Z,1.23
2018-03-20T18:13:34.801Z,1.97
2018-03-20T18:16:01.840Z,1.20
2018-03-20T18:18:28.652Z,1.17
2018-03-20T18:20:55.540Z,1.47
2018-03-20T18:23:22.575Z,1.50
2018-03-20T18:25:50.169Z,1.37
2018-03-20T18:28:17.111Z,1.10
2018-03-20T18:30:43.939Z,0.93
2018-03-20T18:33:11.555Z,1.13
2018-03-20T18:35:38.479Z,1.30
2018-03-20T18:38:05.514Z,1.40
2018-03-20T18:40:33.308Z,1.47
2018-03-20T18:43:00.233Z,1.40
2018-03-20T18:45:27.085Z,1.30
2018-03-20T18:47:54.141Z,1.40
2018-03-20T18:50:21.004Z,1.80
2018-03-20T18:52:47.817Z,1.43
2018-03-20T18:55:14.922Z,1.60
2018-03-20T18:57:41.962Z,1.50
2018-03-20T19:00:08.909Z,1.50
2018-03-20T19:02:37.731Z,1.60
2018-03-20T19:05:05.651Z,1.30
2018-03-20T19:07:33.199Z,1.40
2018-03-20T19:10:00.185Z,1.87
2018-03-20T19:12:27.025Z,1.63
2018-03-20T19:14:53.837Z,1.47
2018-03-20T19:17:20.800Z,1.50
2018-03-20T19:19:47.690Z,1.63
2018-03-20T19:22:15.361Z,1.50
2018-03-20T19:24:42.414Z,1.50
2018-03-20T19:27:09.461Z,1.33
2018-03-20T19:29:36.415Z,1.87
2018-03-20T19:32:03.255Z,2.10
2018-03-20T19:34:30.188Z,1.70
2018-03-20T19:36:57.753Z,1.50
2018-03-20T19:39:25.444Z,1.40
2018-03-20T19:41:52.599Z,1.83
2018-03-20T19:44:19.417Z,1.50
2018-03-20T19:46:46.992Z,2.07
2018-03-20T19:49:14.783Z,1.60
2018-03-20T19:51:41.682Z,1.70
2018-03-20T19:54:08.892Z,2.17
2018-03-20T19:56:35.791Z,2.10
2018-03-20T19:59:02.672Z,1.90
2018-03-20T20:01:30.359Z,2.00
2018-03-20T20:03:58.252Z,1.90
2018-03-20T20:06:25.275Z,1.80
2018-03-20T20:08:52.108Z,1.80
2018-03-20T20:11:19.082Z,2.20
2018-03-20T20:13:45.869Z,1.90
2018-03-20T20:16:13.496Z,2.20
2018-03-20T20:18:41.164Z,1.57
2018-03-20T20:21:08.319Z,2.07
2018-03-20T20:23:35.348Z,1.97
2018-03-20T20:26:02.914Z,2.20
2018-03-20T20:28:30.478Z,2.60
2018-03-20T20:30:58.167Z,2.60
2018-03-20T20:33:25.020Z,2.40
2018-03-20T20:35:51.868Z,2.63
2018-03-20T20:38:19.509Z,2.53
2018-03-20T20:40:47.101Z,2.50
2018-03-20T20:43:15.798Z,2.80
2018-03-20T20:45:42.944Z,2.70
2018-03-20T20:48:10.000Z,2.70
2018-03-20T20:50:36.721Z,2.73
2018-03-20T20:53:04.298Z,2.53
2018-03-20T20:55:31.055Z,2.50
2018-03-20T20:57:57.743Z,2.60
2018-03-20T21:00:24.552Z,2.70
2018-03-20T21:02:52.636Z,2.67
2018-03-20T21:05:20.884Z,2.53
2018-03-20T21:07:48.224Z,2.80
2018-03-20T21:10:15.135Z,3.10
2018-03-20T21:12:41.971Z,2.87
2018-03-20T21:15:09.132Z,2.73
2018-03-20T21:17:37.257Z,2.97
2018-03-20T21:20:04.858Z,3.17
2018-03-20T21:22:33.456Z,2.90
2018-03-20T21:25:00.239Z,3.00
2018-03-20T21:27:27.516Z,2.97
2018-03-20T21:29:55.285Z,3.30
2018-03-20T21:32:22.502Z,3.30
2018-03-20T21:34:49.178Z,2.97
2018-03-20T21:37:15.982Z,2.90
2018-03-20T21:39:43.507Z,2.90
2018-03-20T21:42:10.919Z,3.03
2018-03-20T21:44:39.039Z,2.83
2018-03-20T21:47:05.754Z,3.00
2018-03-20T21:49:32.441Z,3.23
2018-03-20T21:51:59.949Z,2.90
2018-03-20T21:54:26.620Z,3.07
2018-03-20T21:56:54.039Z,2.90
2018-03-20T21:59:21.911Z,3.37
2018-03-20T22:01:49.060Z,3.67
2018-03-20T22:04:15.826Z,3.13
2018-03-20T22:06:42.561Z,3.27
2018-03-20T22:09:09.306Z,3.00
2018-03-20T22:11:36.961Z,3.57
2018-03-20T22:14:04.693Z,3.73
2018-03-20T22:16:31.585Z,4.70
2018-03-20T22:19:01.369Z,4.03
2018-03-20T22:21:28.497Z,4.07
2018-03-20T22:23:55.446Z,4.03
2018-03-20T22:26:22.418Z,3.87
2018-03-20T22:28:49.115Z,3.63
2018-03-20T22:31:15.889Z,3.70
2018-03-20T22:33:42.791Z,3.53
2018-03-20T22:36:09.500Z,3.43
2018-03-20T22:38:36.181Z,3.73
2018-03-20T22:41:02.923Z,3.80
2018-03-20T22:43:29.568Z,3.80
2018-03-20T22:45:56.315Z,3.50
2018-03-20T22:48:23.842Z,3.60
2018-03-20T22:50:50.555Z,3.80
2018-03-20T22:53:17.391Z,3.23
2018-03-20T22:55:44.140Z,3.40
2018-03-20T22:58:10.884Z,3.40
2018-03-20T23:00:37.631Z,3.33
2018-03-20T23:03:04.376Z,3.00
2018-03-20T23:05:31.304Z,3.67
2018-03-20T23:07:58.893Z,3.70
2018-03-20T23:10:25.652Z,3.43
2018-03-20T23:12:52.467Z,3.10
2018-03-20T23:15:19.232Z,3.30
2018-03-20T23:17:45.978Z,3.27
2018-03-20T23:20:13.545Z,3.10
2018-03-20T23:22:40.258Z,2.87
2018-03-20T23:25:07.743Z,3.27
2018-03-20T23:27:35.319Z,3.13
2018-03-20T23:30:02.085Z,2.77
2018-03-20T23:32:29.010Z,2.90
2018-03-20T23:34:55.866Z,2.83
2018-03-20T23:37:22.611Z,3.23
2018-03-20T23:39:49.666Z,2.80
2018-03-20T23:42:23.475Z,2.80
2018-03-20T23:44:52.730Z,2.50
2018-03-20T23:47:20.546Z,3.13
2018-03-20T23:49:48.487Z,2.37
2018-03-20T23:52:15.346Z,2.50
2018-03-20T23:54:42.830Z,2.60
2018-03-20T23:57:09.577Z,2.93
2018-03-20T23:59:36.306Z,2.80
